createdAt,value
2018-07-03T00:00:03.600Z,20.60
2018-07-03T00:02:31.081Z,20.10
2018-07-03T00:04:58.611Z,20.50
2018-07-03T00:07:26.216Z,20.80
2018-07-03T00:09:54.003Z,20.80
2018-07-03T00:12:21.669Z,20.10
2018-07-03T00:14:49.222Z,20.30
2018-07-03T00:17:17.882Z,20.30
2018-07-03T00:19:49.143Z,20.40
2018-07-03T00:22:17.278Z,20.40
2018-07-03T00:24:45.544Z,20.20
2018-07-03T00:27:13.616Z,20.30
2018-07-03T00:29:41.339Z,20.40
2018-07-03T00:32:08.991Z,20.50
2018-07-03T00:37:05.342Z,20.10
2018-07-03T00:39:32.867Z,20.10
2018-07-03T00:42:00.391Z,20.20
2018-07-03T00:44:28.076Z,20.00
2018-07-03T00:46:55.747Z,20.20
2018-07-03T00:49:23.304Z,20.20
2018-07-03T00:51:50.983Z,20.20
2018-07-03T00:54:18.678Z,20.20
2018-07-03T00:56:46.407Z,20.50
2018-07-03T00:59:14.279Z,20.00
2018-07-03T01:01:42.068Z,20.00
2018-07-03T01:04:09.727Z,20.00
2018-07-03T01:06:37.565Z,19.70
2018-07-03T01:09:07.336Z,19.60
2018-07-03T01:11:35.735Z,20.00
2018-07-03T01:14:03.543Z,19.90
2018-07-03T01:16:31.152Z,20.10
2018-07-03T01:18:58.740Z,20.40
2018-07-03T01:21:26.501Z,20.40
2018-07-03T01:23:54.212Z,20.50
2018-07-03T01:26:22.138Z,20.20
2018-07-03T01:28:49.870Z,20.10
2018-07-03T01:31:17.584Z,20.20
2018-07-03T01:36:13.273Z,20.00
2018-07-03T01:38:41.303Z,19.70
2018-07-03T01:41:09.187Z,19.60
2018-07-03T01:43:36.843Z,19.50
2018-07-03T01:48:32.590Z,20.00
2018-07-03T01:51:00.601Z,19.60
2018-07-03T01:53:28.480Z,19.70
2018-07-03T01:55:56.474Z,20.10
2018-07-03T01:58:24.186Z,19.70
2018-07-03T02:00:51.949Z,20.30
2018-07-03T02:03:20.185Z,20.00
2018-07-03T02:05:48.197Z,19.50
2018-07-03T02:08:16.016Z,19.50
2018-07-03T02:10:43.683Z,19.60
2018-07-03T02:13:11.990Z,19.60
2018-07-03T02:15:39.971Z,19.20
2018-07-03T02:18:08.273Z,19.40
2018-07-03T02:20:36.155Z,19.40
2018-07-03T02:23:04.165Z,19.50
2018-07-03T02:25:32.196Z,19.50
2018-07-03T02:27:59.863Z,19.50
2018-07-03T02:30:28.090Z,19.50
2018-07-03T02:32:59.137Z,19.70
2018-07-03T02:35:26.891Z,19.30
2018-07-03T02:37:55.042Z,19.40
2018-07-03T02:40:23.211Z,19.50
2018-07-03T02:42:51.117Z,19.50
2018-07-03T02:45:19.163Z,19.60
2018-07-03T02:47:47.319Z,19.10
2018-07-03T02:50:15.537Z,19.30
2018-07-03T02:52:43.507Z,19.60
2018-07-03T02:55:11.513Z,19.50
2018-07-03T03:00:07.445Z,19.20
2018-07-03T03:02:35.565Z,19.20
2018-07-03T03:05:03.524Z,19.10
2018-07-03T03:10:00.112Z,19.40
2018-07-03T03:12:29.013Z,19.30
2018-07-03T03:14:59.019Z,19.40
2018-07-03T03:17:27.093Z,18.90
2018-07-03T03:22:26.324Z,19.20
2018-07-03T03:24:54.373Z,19.00
2018-07-03T03:27:22.451Z,19.30
2018-07-03T03:32:18.452Z,19.50
2018-07-03T03:34:46.317Z,19.70
2018-07-03T03:39:45.969Z,19.60
2018-07-03T03:42:14.024Z,19.50
2018-07-03T03:44:42.225Z,19.40
2018-07-03T03:47:10.215Z,19.50
2018-07-03T03:49:38.247Z,19.50
2018-07-03T03:52:06.241Z,19.60
2018-07-03T03:54:34.020Z,19.70
2018-07-03T03:57:02.100Z,19.60
2018-07-03T03:59:30.375Z,20.00
2018-07-03T04:01:58.337Z,19.90
2018-07-03T04:04:25.947Z,19.90
2018-07-03T04:06:53.855Z,20.00
2018-07-03T04:09:21.706Z,20.00
2018-07-03T04:11:49.372Z,20.20
2018-07-03T04:14:16.927Z,20.60
2018-07-03T04:16:44.478Z,20.60
2018-07-03T04:19:11.943Z,21.60
2018-07-03T04:21:39.448Z,21.70
2018-07-03T04:24:07.063Z,21.90
2018-07-03T04:26:34.543Z,22.30
2018-07-03T04:29:02.103Z,22.00
2018-07-03T04:31:29.675Z,22.20
2018-07-03T04:33:57.138Z,22.30
2018-07-03T04:36:24.642Z,22.80
2018-07-03T04:41:19.770Z,23.20
2018-07-03T04:43:47.267Z,22.40
2018-07-03T04:46:14.797Z,23.00
2018-07-03T04:48:42.247Z,23.20
2018-07-03T04:51:09.680Z,22.90
2018-07-03T04:53:37.198Z,23.70
2018-07-03T04:56:04.822Z,23.80
2018-07-03T04:58:32.266Z,23.90
2018-07-03T05:01:00.052Z,24.30
2018-07-03T05:03:27.596Z,23.70
2018-07-03T05:05:55.075Z,23.80
2018-07-03T05:08:22.550Z,23.70
2018-07-03T05:10:50.046Z,23.50
2018-07-03T05:13:17.697Z,23.40
2018-07-03T05:15:45.191Z,23.60
2018-07-03T05:18:12.751Z,23.70
2018-07-03T05:20:40.321Z,24.00
2018-07-03T05:25:35.237Z,24.80
2018-07-03T05:28:02.733Z,24.20
2018-07-03T05:30:30.254Z,24.30
2018-07-03T05:32:57.723Z,24.20
2018-07-03T05:35:25.263Z,24.20
2018-07-03T05:37:52.971Z,24.30
2018-07-03T05:40:20.468Z,24.20
2018-07-03T05:42:48.005Z,24.70
2018-07-03T05:45:15.460Z,24.20
2018-07-03T05:47:42.999Z,24.40
2018-07-03T05:50:10.483Z,24.60
2018-07-03T05:52:37.999Z,24.70
2018-07-03T05:55:05.479Z,24.80
2018-07-03T05:57:33.063Z,24.80
2018-07-03T06:00:00.614Z,25.10
2018-07-03T06:02:28.197Z,25.00
2018-07-03T06:07:23.217Z,25.10
2018-07-03T06:09:50.720Z,24.40
2018-07-03T06:12:18.211Z,24.70
2018-07-03T06:14:45.709Z,25.40
2018-07-03T06:17:13.251Z,25.70
2018-07-03T06:19:40.804Z,25.30
2018-07-03T06:22:08.262Z,24.90
2018-07-03T06:24:35.772Z,24.70
2018-07-03T06:27:03.328Z,24.40
2018-07-03T06:29:30.839Z,25.30
2018-07-03T06:33:10.128Z,25.90
2018-07-03T06:35:37.654Z,26.00
2018-07-03T06:38:05.155Z,26.00
2018-07-03T06:40:32.690Z,26.00
2018-07-03T06:43:00.212Z,26.40
2018-07-03T06:45:27.728Z,26.30
2018-07-03T06:47:55.743Z,26.40
2018-07-03T06:50:23.256Z,24.50
2018-07-03T06:52:50.733Z,23.90
2018-07-03T06:55:18.259Z,23.60
2018-07-03T06:57:45.796Z,23.40
2018-07-03T07:00:13.268Z,23.10
2018-07-03T07:02:40.788Z,22.70
2018-07-03T07:05:08.272Z,23.50
2018-07-03T07:07:35.797Z,23.00
2018-07-03T07:10:03.675Z,23.20
2018-07-03T07:12:31.199Z,23.60
2018-07-03T07:14:58.695Z,23.40
2018-07-03T07:17:26.276Z,22.80
2018-07-03T07:19:53.723Z,22.90
2018-07-03T07:22:21.172Z,22.30
2018-07-03T07:24:48.691Z,22.50
2018-07-03T07:27:16.249Z,22.90
2018-07-03T07:29:43.779Z,23.10
2018-07-03T07:32:11.283Z,22.30
2018-07-03T07:34:38.735Z,22.60
2018-07-03T07:37:06.447Z,23.00
2018-07-03T07:42:01.345Z,23.40
2018-07-03T07:44:28.871Z,22.90
2018-07-03T07:46:56.468Z,23.30
2018-07-03T07:49:23.978Z,22.80
2018-07-03T07:51:51.467Z,23.00
2018-07-03T07:54:18.936Z,22.80
2018-07-03T07:56:46.510Z,22.40
2018-07-03T07:59:14.011Z,22.80
2018-07-03T08:01:41.523Z,23.30
2018-07-03T08:04:08.972Z,22.90
2018-07-03T08:06:36.498Z,22.30
2018-07-03T08:09:07.188Z,22.70
2018-07-03T08:11:34.702Z,22.70
2018-07-03T08:14:02.602Z,22.90
2018-07-03T08:16:30.133Z,22.40
2018-07-03T08:18:57.673Z,23.00
2018-07-03T08:21:25.204Z,22.70
2018-07-03T08:23:52.691Z,23.30
2018-07-03T08:26:20.210Z,23.40
2018-07-03T08:28:47.730Z,23.50
2018-07-03T08:31:15.498Z,23.80
2018-07-03T08:33:42.979Z,23.50
2018-07-03T08:36:10.507Z,23.50
2018-07-03T08:38:37.983Z,23.80
2018-07-03T08:41:05.799Z,23.20
2018-07-03T08:43:33.341Z,23.20
2018-07-03T08:46:00.843Z,23.50
2018-07-03T08:48:28.364Z,23.50
2018-07-03T08:50:55.835Z,23.40
2018-07-03T08:53:23.319Z,23.30
2018-07-03T08:55:50.815Z,23.10
2018-07-03T08:58:18.314Z,22.70
2018-07-03T09:00:45.767Z,23.00
2018-07-03T09:03:13.335Z,22.90
2018-07-03T09:05:40.788Z,23.00
2018-07-03T09:08:08.462Z,23.10
2018-07-03T09:10:35.970Z,22.80
2018-07-03T09:13:03.498Z,23.20
2018-07-03T09:15:30.966Z,23.30
2018-07-03T09:17:58.446Z,23.10
2018-07-03T09:20:25.988Z,23.20
2018-07-03T09:22:53.516Z,23.10
2018-07-03T09:25:21.018Z,23.40
2018-07-03T09:30:15.988Z,22.90
2018-07-03T09:32:43.699Z,23.00
2018-07-03T09:35:11.227Z,23.00
2018-07-03T09:37:38.731Z,22.90
2018-07-03T09:40:06.212Z,23.20
2018-07-03T09:42:33.723Z,23.20
2018-07-03T09:45:01.279Z,23.10
2018-07-03T09:47:28.802Z,23.50
2018-07-03T09:49:56.556Z,23.50
2018-07-03T09:52:24.018Z,23.40
2018-07-03T09:54:51.544Z,23.10
2018-07-03T09:57:19.142Z,23.20
2018-07-03T09:59:46.993Z,23.20
2018-07-03T10:02:14.690Z,23.20
2018-07-03T10:04:42.216Z,23.10
2018-07-03T10:07:09.686Z,23.40
2018-07-03T10:09:37.195Z,23.10
2018-07-03T10:14:32.148Z,23.20
2018-07-03T10:16:59.646Z,23.10
2018-07-03T10:19:27.179Z,23.50
2018-07-03T10:21:54.645Z,23.60
2018-07-03T10:24:22.149Z,23.60
2018-07-03T10:26:49.650Z,23.60
2018-07-03T10:29:17.210Z,23.30
2018-07-03T10:31:44.665Z,23.50
2018-07-03T10:34:12.477Z,23.40
2018-07-03T10:36:39.936Z,23.40
2018-07-03T10:39:09.057Z,23.60
2018-07-03T10:41:36.664Z,23.40
2018-07-03T10:44:04.165Z,23.60
2018-07-03T10:46:31.722Z,23.70
2018-07-03T10:48:59.165Z,23.40
2018-07-03T10:53:54.252Z,23.70
2018-07-03T10:56:21.959Z,23.50
2018-07-03T10:58:49.515Z,23.70
2018-07-03T11:01:16.979Z,24.00
2018-07-03T11:03:44.555Z,24.20
2018-07-03T11:06:12.035Z,24.30
2018-07-03T11:08:39.503Z,24.30
2018-07-03T11:11:06.983Z,24.40
2018-07-03T11:13:34.518Z,24.60
2018-07-03T11:16:01.977Z,24.40
2018-07-03T11:18:29.593Z,24.10
2018-07-03T11:20:57.068Z,23.90
2018-07-03T11:23:24.695Z,24.00
2018-07-03T11:25:52.311Z,24.30
2018-07-03T11:28:19.783Z,24.30
2018-07-03T11:30:47.303Z,24.10
2018-07-03T11:33:14.791Z,24.30
2018-07-03T11:35:42.331Z,24.20
2018-07-03T11:38:09.892Z,24.30
2018-07-03T11:40:37.392Z,24.20
2018-07-03T11:43:04.884Z,24.00
2018-07-03T11:45:32.592Z,24.00
2018-07-03T11:48:00.056Z,23.90
2018-07-03T11:50:27.501Z,23.70
2018-07-03T11:52:55.115Z,24.10
2018-07-03T11:55:22.570Z,24.00
2018-07-03T11:57:50.065Z,23.80
2018-07-03T12:00:18.133Z,24.10
2018-07-03T12:02:45.628Z,24.20
2018-07-03T12:05:13.136Z,24.10
2018-07-03T12:07:40.627Z,24.20
2018-07-03T12:12:35.578Z,24.40
2018-07-03T12:15:03.084Z,24.30
2018-07-03T12:17:30.586Z,24.40
2018-07-03T12:19:58.075Z,24.50
2018-07-03T12:22:25.531Z,24.40
2018-07-03T12:24:53.064Z,24.20
2018-07-03T12:27:20.562Z,24.50
2018-07-03T12:29:48.067Z,24.40
2018-07-03T12:32:15.593Z,24.40
2018-07-03T12:34:43.206Z,24.60
2018-07-03T12:37:10.668Z,24.30
2018-07-03T12:42:05.910Z,24.70
2018-07-03T12:47:00.876Z,24.30
2018-07-03T12:49:28.391Z,24.30
2018-07-03T12:51:55.874Z,24.50
2018-07-03T12:54:23.383Z,24.40
2018-07-03T12:56:51.005Z,24.30
2018-07-03T12:59:18.487Z,24.60
2018-07-03T13:01:46.044Z,24.60
2018-07-03T13:04:13.599Z,24.40
2018-07-03T13:06:41.096Z,24.50
2018-07-03T13:09:09.980Z,24.60
2018-07-03T13:11:37.486Z,24.60
2018-07-03T13:14:05.128Z,24.80
2018-07-03T13:16:32.648Z,24.80
2018-07-03T13:19:00.124Z,25.10
2018-07-03T13:23:55.060Z,25.00
2018-07-03T13:26:22.550Z,25.10
2018-07-03T13:28:49.982Z,24.90
2018-07-03T13:31:17.472Z,24.80
2018-07-03T13:33:44.991Z,24.90
2018-07-03T13:38:40.080Z,24.80
2018-07-03T13:41:07.821Z,24.90
2018-07-03T13:43:35.311Z,24.80
2018-07-03T13:46:02.808Z,24.80
2018-07-03T13:48:30.397Z,24.70
2018-07-03T13:50:57.832Z,24.70
2018-07-03T13:53:25.443Z,25.00
2018-07-03T13:55:53.055Z,25.10
2018-07-03T13:58:20.582Z,25.00
2018-07-03T14:00:48.252Z,25.10
2018-07-03T14:03:15.732Z,25.00
2018-07-03T14:05:43.244Z,24.40
2018-07-03T14:08:10.787Z,24.30
2018-07-03T14:10:38.388Z,24.40
2018-07-03T14:13:05.904Z,24.60
2018-07-03T14:15:33.427Z,24.70
2018-07-03T14:18:00.933Z,24.80
2018-07-03T14:20:28.426Z,23.80
2018-07-03T14:22:55.926Z,24.80
2018-07-03T14:25:23.414Z,24.40
2018-07-03T14:27:50.965Z,24.60
2018-07-03T14:30:18.649Z,24.70
2018-07-03T14:32:46.171Z,24.90
2018-07-03T14:35:13.665Z,24.80
2018-07-03T14:40:08.653Z,24.60
2018-07-03T14:42:36.312Z,24.60
2018-07-03T14:45:04.348Z,24.80
2018-07-03T14:47:31.906Z,24.80
2018-07-03T14:49:59.463Z,24.80
2018-07-03T14:52:26.964Z,24.70
2018-07-03T14:54:54.492Z,24.80
2018-07-03T14:57:22.053Z,24.40
2018-07-03T14:59:49.547Z,24.40
2018-07-03T15:02:17.056Z,24.40
2018-07-03T15:04:44.623Z,24.50
2018-07-03T15:07:12.153Z,24.20
2018-07-03T15:09:39.662Z,24.30
2018-07-03T15:12:07.273Z,24.50
2018-07-03T15:14:34.799Z,24.40
2018-07-03T15:17:02.299Z,24.40
2018-07-03T15:19:35.608Z,24.20
2018-07-03T15:22:03.168Z,24.00
2018-07-03T15:24:30.643Z,24.10
2018-07-03T15:26:58.224Z,24.00
2018-07-03T15:31:53.354Z,24.10
2018-07-03T15:34:20.908Z,24.20
2018-07-03T15:36:48.447Z,24.30
2018-07-03T15:39:15.987Z,24.30
2018-07-03T15:41:43.519Z,24.20
2018-07-03T15:44:22.700Z,24.30
2018-07-03T15:46:50.127Z,24.50
2018-07-03T15:49:17.655Z,24.60
2018-07-03T15:51:45.724Z,24.90
2018-07-03T15:56:40.816Z,24.90
2018-07-03T16:01:35.833Z,25.00
2018-07-03T16:04:14.916Z,25.10
2018-07-03T16:07:21.672Z,25.30
2018-07-03T16:09:49.225Z,25.30
2018-07-03T16:14:44.238Z,24.80
2018-07-03T16:17:11.711Z,24.70
2018-07-03T16:19:44.804Z,24.10
2018-07-03T16:22:12.314Z,24.00
2018-07-03T16:24:39.934Z,24.20
2018-07-03T16:27:07.562Z,23.80
2018-07-03T16:29:35.059Z,23.50
2018-07-03T16:32:02.624Z,23.50
2018-07-03T16:34:30.117Z,23.40
2018-07-03T16:36:57.722Z,23.40
2018-07-03T16:39:25.208Z,23.40
2018-07-03T16:41:53.078Z,23.50
2018-07-03T16:44:20.603Z,23.70
2018-07-03T16:46:48.096Z,23.90
2018-07-03T16:49:15.610Z,23.50
2018-07-03T16:51:43.225Z,23.50
2018-07-03T16:54:10.721Z,23.40
2018-07-03T16:56:38.243Z,23.20
2018-07-03T16:59:05.753Z,23.10
2018-07-03T17:01:33.267Z,23.10
2018-07-03T17:04:00.806Z,23.50
2018-07-03T17:06:28.340Z,23.70
2018-07-03T17:08:55.862Z,23.30
2018-07-03T17:11:23.371Z,23.20
2018-07-03T17:13:50.965Z,23.00
2018-07-03T17:16:18.427Z,22.80
2018-07-03T17:18:52.113Z,22.70
2018-07-03T17:21:19.591Z,22.70
2018-07-03T17:23:47.152Z,22.80
2018-07-03T17:26:14.688Z,22.70
2018-07-03T17:28:42.182Z,22.50
2018-07-03T17:31:09.646Z,22.60
2018-07-03T17:33:37.179Z,22.50
2018-07-03T17:36:04.760Z,22.50
2018-07-03T17:38:32.296Z,23.00
2018-07-03T17:41:11.314Z,23.20
2018-07-03T17:44:07.850Z,22.70
2018-07-03T17:49:02.839Z,22.90
2018-07-03T17:51:30.550Z,22.80
2018-07-03T17:53:58.057Z,22.80
2018-07-03T17:56:25.616Z,22.80
2018-07-03T17:58:53.143Z,22.40
2018-07-03T18:01:20.966Z,22.20
2018-07-03T18:03:48.687Z,22.70
2018-07-03T18:06:16.398Z,22.90
2018-07-03T18:08:44.063Z,22.80
2018-07-03T18:11:11.623Z,22.70
2018-07-03T18:13:39.101Z,23.10
2018-07-03T18:16:06.795Z,23.40
2018-07-03T18:18:34.317Z,23.70
2018-07-03T18:21:01.835Z,23.70
2018-07-03T18:23:29.355Z,23.80
2018-07-03T18:25:56.955Z,23.90
2018-07-03T18:28:24.473Z,23.70
2018-07-03T18:30:52.339Z,23.60
2018-07-03T18:33:19.744Z,23.80
2018-07-03T18:38:14.684Z,23.80
2018-07-03T18:40:42.275Z,22.80
2018-07-03T18:43:09.923Z,22.70
2018-07-03T18:45:37.555Z,22.60
2018-07-03T18:48:05.072Z,22.60
2018-07-03T18:50:32.659Z,22.10
2018-07-03T18:55:27.759Z,21.80
2018-07-03T19:00:22.802Z,21.80
2018-07-03T19:02:50.252Z,21.80
2018-07-03T19:05:18.119Z,21.60
2018-07-03T19:07:45.862Z,21.40
2018-07-03T19:10:13.377Z,21.60
2018-07-03T19:12:40.896Z,21.60
2018-07-03T19:15:08.589Z,21.50
2018-07-03T19:17:36.238Z,21.40
2018-07-03T19:20:03.940Z,21.30
2018-07-03T19:22:31.631Z,21.30
2018-07-03T19:24:59.305Z,21.20
2018-07-03T19:27:26.829Z,21.10
2018-07-03T19:29:54.354Z,21.10
2018-07-03T19:32:21.917Z,21.00
2018-07-03T19:34:49.414Z,20.90
2018-07-03T19:37:16.945Z,21.10
2018-07-03T19:39:44.585Z,21.10
2018-07-03T19:42:12.287Z,20.80
2018-07-03T19:44:39.824Z,20.70
2018-07-03T19:47:07.531Z,20.60
2018-07-03T19:49:35.242Z,20.40
2018-07-03T19:52:02.951Z,20.50
2018-07-03T19:54:30.528Z,20.50
2018-07-03T19:56:58.199Z,20.40
2018-07-03T19:59:25.997Z,20.60
2018-07-03T20:01:59.847Z,20.20
2018-07-03T20:04:27.655Z,20.30
2018-07-03T20:06:55.590Z,20.10
2018-07-03T20:09:23.452Z,20.10
2018-07-03T20:11:51.276Z,19.90
2018-07-03T20:14:19.271Z,20.00
2018-07-03T20:16:46.980Z,19.80
2018-07-03T20:19:15.766Z,19.60
2018-07-03T20:21:44.998Z,19.80
2018-07-03T20:24:13.269Z,19.70
2018-07-03T20:26:41.444Z,19.60
2018-07-03T20:29:09.967Z,19.60
2018-07-03T20:31:38.080Z,19.50
2018-07-03T20:36:33.583Z,19.50
2018-07-03T20:39:01.471Z,19.60
2018-07-03T20:41:29.462Z,19.40
2018-07-03T20:43:58.664Z,19.10
2018-07-03T20:46:27.350Z,18.80
2018-07-03T20:48:55.946Z,19.00
2018-07-03T20:53:53.206Z,18.80
2018-07-03T20:56:21.866Z,18.80
2018-07-03T20:58:49.594Z,18.90
2018-07-03T21:01:18.650Z,18.90
2018-07-03T21:03:46.860Z,18.60
2018-07-03T21:06:15.357Z,18.90
2018-07-03T21:08:43.286Z,18.60
2018-07-03T21:11:11.886Z,18.70
2018-07-03T21:13:39.585Z,18.60
2018-07-03T21:16:07.644Z,18.80
2018-07-03T21:18:35.526Z,18.50
2018-07-03T21:21:04.042Z,18.70
2018-07-03T21:23:32.523Z,18.30
2018-07-03T21:26:00.617Z,18.00
2018-07-03T21:28:28.449Z,18.20
2018-07-03T21:30:56.022Z,19.40
2018-07-03T21:33:23.699Z,19.60
2018-07-03T21:35:51.246Z,19.70
2018-07-03T21:38:18.764Z,19.90
2018-07-03T21:40:46.580Z,20.20
2018-07-03T21:43:14.118Z,19.90
2018-07-03T21:45:41.607Z,20.40
2018-07-03T21:48:09.128Z,19.70
2018-07-03T21:50:36.697Z,20.20
2018-07-03T21:53:04.209Z,20.10
2018-07-03T21:55:31.688Z,20.40
2018-07-03T22:00:37.891Z,20.20
2018-07-03T22:03:06.976Z,19.70
2018-07-03T22:05:35.895Z,19.70
2018-07-03T22:08:03.960Z,19.70
2018-07-03T22:10:32.048Z,19.60
2018-07-03T22:12:59.754Z,19.40
2018-07-03T22:15:27.301Z,19.70
2018-07-03T22:20:22.323Z,20.20
2018-07-03T22:22:49.943Z,20.50
2018-07-03T22:25:17.513Z,20.70
2018-07-03T22:27:45.120Z,20.80
2018-07-03T22:30:12.631Z,20.80
2018-07-03T22:32:40.194Z,20.60
2018-07-03T22:35:07.794Z,20.20
2018-07-03T22:37:35.521Z,19.70
2018-07-03T22:40:03.412Z,19.60
2018-07-03T22:42:31.484Z,19.40
2018-07-03T22:44:59.538Z,20.10
2018-07-03T22:49:54.934Z,19.50
2018-07-03T22:52:23.004Z,19.30
2018-07-03T22:54:50.870Z,19.30
2018-07-03T22:57:19.094Z,19.40
2018-07-03T22:59:57.521Z,19.20
2018-07-03T23:02:25.824Z,19.10
2018-07-03T23:04:53.997Z,19.40
2018-07-03T23:07:21.699Z,19.60
2018-07-03T23:09:49.559Z,19.80
2018-07-03T23:12:18.159Z,19.70
2018-07-03T23:17:14.880Z,19.70
2018-07-03T23:19:42.816Z,19.60
2018-07-03T23:22:11.337Z,20.30
2018-07-03T23:24:39.420Z,19.30
2018-07-03T23:27:07.508Z,19.10
2018-07-03T23:29:35.755Z,19.40
2018-07-03T23:32:03.465Z,19.20
2018-07-03T23:34:31.682Z,19.40
2018-07-03T23:37:02.580Z,19.40
2018-07-03T23:41:59.163Z,19.50
2018-07-03T23:44:27.019Z,19.50
2018-07-03T23:47:06.474Z,19.30
2018-07-03T23:49:51.969Z,19.30
2018-07-03T23:52:37.520Z,19.60
2018-07-03T23:55:22.886Z,19.30
2018-07-03T23:58:08.355Z,19.10
